sensor_id;sensor_type;location;lat;lon;timestamp;temperature;humidity
9544;DHT22;30418;51.45933468;7.33152330;2023-04-25T00:01:39;11.80;56.10
9544;DHT22;30418;51.45933468;7.33152330;2023-04-25T00:04:07;11.80;56.20
9544;DHT22;30418;51.45933468;7.33152330;2023-04-25T00:06:37;11.80;56.20
9544;DHT22;30418;51.45933468;7.33152330;2023-04-25T00:09:07;11.80;56.20
9544;DHT22;30418;51.45933468;7.33152330;2023-04-25T00:11:37;11.80;56.20
9544;DHT22;30418;51.45933468;7.33152330;2023-04-25T00:14:05;11.80;56.20
9544;DHT22;30418;51.45933468;7.33152330;2023-04-25T00:16:35;11.80;56.80
9544;DHT22;30418;51.45933468;7.33152330;2023-04-25T00:19:05;11.80;56.20
9544;DHT22;30418;51.45933468;7.33152330;2023-04-25T00:21:34;11.80;56.30
9544;DHT22;30418;51.45933468;7.33152330;2023-04-25T00:24:05;11.80;56.30
9544;DHT22;30418;51.45933468;7.33152330;2023-04-25T00:26:34;11.80;56.30
9544;DHT22;30418;51.45933468;7.33152330;2023-04-25T00:29:03;11.80;56.30
9544;DHT22;30418;51.45933468;7.33152330;2023-04-25T00:31:32;11.80;56.30
9544;DHT22;30418;51.45933468;7.33152330;2023-04-25T00:34:00;11.70;56.30
9544;DHT22;30418;51.45933468;7.33152330;2023-04-25T00:36:30;11.80;56.40
9544;DHT22;30418;51.45933468;7.33152330;2023-04-25T00:38:58;11.70;56.40
9544;DHT22;30418;51.45933468;7.33152330;2023-04-25T00:41:27;11.70;56.50
9544;DHT22;30418;51.45933468;7.33152330;2023-04-25T00:43:58;11.70;56.50
9544;DHT22;30418;51.45933468;7.33152330;2023-04-25T00:46:27;11.70;57.20
9544;DHT22;30418;51.45933468;7.33152330;2023-04-25T00:48:56;11.70;56.60
9544;DHT22;30418;51.45933468;7.33152330;2023-04-25T00:51:25;11.70;56.60
9544;DHT22;30418;51.45933468;7.33152330;2023-04-25T00:53:56;11.60;56.60
9544;DHT22;30418;51.45933468;7.33152330;2023-04-25T00:56:24;11.70;56.80
9544;DHT22;30418;51.45933468;7.33152330;2023-04-25T00:58:53;11.60;56.80
9544;DHT22;30418;51.45933468;7.33152330;2023-04-25T01:01:23;11.60;56.70
9544;DHT22;30418;51.45933468;7.33152330;2023-04-25T01:03:53;11.60;56.70
9544;DHT22;30418;51.45933468;7.33152330;2023-04-25T01:06:22;11.70;56.90
9544;DHT22;30418;51.45933468;7.33152330;2023-04-25T01:08:55;11.60;56.80
9544;DHT22;30418;51.45933468;7.33152330;2023-04-25T01:11:24;11.60;57.00
9544;DHT22;30418;51.45933468;7.33152330;2023-04-25T01:13:53;11.60;57.00
9544;DHT22;30418;51.45933468;7.33152330;2023-04-25T01:16:22;11.60;57.70
9544;DHT22;30418;51.45933468;7.33152330;2023-04-25T01:18:51;11.60;57.20
9544;DHT22;30418;51.45933468;7.33152330;2023-04-25T01:21:21;11.60;57.30
9544;DHT22;30418;51.45933468;7.33152330;2023-04-25T01:23:54;11.60;57.40
9544;DHT22;30418;51.45933468;7.33152330;2023-04-25T01:26:23;11.60;57.50
9544;DHT22;30418;51.45933468;7.33152330;2023-04-25T01:28:52;11.60;57.50
9544;DHT22;30418;51.45933468;7.33152330;2023-04-25T01:31:21;11.60;57.60
9544;DHT22;30418;51.45933468;7.33152330;2023-04-25T01:33:50;11.60;57.70
9544;DHT22;30418;51.45933468;7.33152330;2023-04-25T01:36:22;11.60;57.90
9544;DHT22;30418;51.45933468;7.33152330;2023-04-25T01:38:51;11.60;57.90
9544;DHT22;30418;51.45933468;7.33152330;2023-04-25T01:41:21;11.60;57.90
9544;DHT22;30418;51.45933468;7.33152330;2023-04-25T01:43:50;11.60;58.00
9544;DHT22;30418;51.45933468;7.33152330;2023-04-25T01:46:19;11.60;58.10
9544;DHT22;30418;51.45933468;7.33152330;2023-04-25T01:48:48;11.60;58.10
9544;DHT22;30418;51.45933468;7.33152330;2023-04-25T01:51:17;11.60;58.10
9544;DHT22;30418;51.45933468;7.33152330;2023-04-25T01:53:47;11.60;58.20
9544;DHT22;30418;51.45933468;7.33152330;2023-04-25T01:56:17;11.60;58.30
9544;DHT22;30418;51.45933468;7.33152330;2023-04-25T01:58:46;11.60;58.30
9544;DHT22;30418;51.45933468;7.33152330;2023-04-25T02:01:29;11.60;58.30
9544;DHT22;30418;51.45933468;7.33152330;2023-04-25T02:04:12;11.60;58.30
9544;DHT22;30418;51.45933468;7.33152330;2023-04-25T02:06:41;11.60;58.30
9544;DHT22;30418;51.45933468;7.33152330;2023-04-25T02:09:12;11.60;58.30
9544;DHT22;30418;51.45933468;7.33152330;2023-04-25T02:11:45;11.50;58.40
9544;DHT22;30418;51.45933468;7.33152330;2023-04-25T02:14:26;11.60;58.50
9544;DHT22;30418;51.45933468;7.33152330;2023-04-25T02:17:18;11.60;58.50
9544;DHT22;30418;51.45933468;7.33152330;2023-04-25T02:19:48;11.60;58.50
9544;DHT22;30418;51.45933468;7.33152330;2023-04-25T02:22:17;11.60;58.50
9544;DHT22;30418;51.45933468;7.33152330;2023-04-25T02:24:47;11.60;58.50
9544;DHT22;30418;51.45933468;7.33152330;2023-04-25T02:27:16;11.60;58.60
9544;DHT22;30418;51.45933468;7.33152330;2023-04-25T02:29:44;11.50;58.50
9544;DHT22;30418;51.45933468;7.33152330;2023-04-25T02:32:13;11.50;58.50
9544;DHT22;30418;51.45933468;7.33152330;2023-04-25T02:34:41;11.50;58.50
9544;DHT22;30418;51.45933468;7.33152330;2023-04-25T02:37:10;11.50;58.40
9544;DHT22;30418;51.45933468;7.33152330;2023-04-25T02:39:38;11.50;58.50
9544;DHT22;30418;51.45933468;7.33152330;2023-04-25T02:42:08;11.50;58.50
9544;DHT22;30418;51.45933468;7.33152330;2023-04-25T02:44:36;11.40;58.60
9544;DHT22;30418;51.45933468;7.33152330;2023-04-25T02:47:05;11.40;58.60
9544;DHT22;30418;51.45933468;7.33152330;2023-04-25T02:49:34;11.40;58.60
9544;DHT22;30418;51.45933468;7.33152330;2023-04-25T02:52:02;11.30;58.60
9544;DHT22;30418;51.45933468;7.33152330;2023-04-25T02:54:31;11.30;58.80
9544;DHT22;30418;51.45933468;7.33152330;2023-04-25T02:57:00;11.20;58.80
9544;DHT22;30418;51.45933468;7.33152330;2023-04-25T02:59:36;11.20;58.90
9544;DHT22;30418;51.45933468;7.33152330;2023-04-25T03:02:04;11.20;59.00
9544;DHT22;30418;51.45933468;7.33152330;2023-04-25T03:04:33;11.20;59.20
9544;DHT22;30418;51.45933468;7.33152330;2023-04-25T03:07:02;11.20;59.20
9544;DHT22;30418;51.45933468;7.33152330;2023-04-25T03:09:30;11.20;59.30
9544;DHT22;30418;51.45933468;7.33152330;2023-04-25T03:11:58;11.20;59.40
9544;DHT22;30418;51.45933468;7.33152330;2023-04-25T03:14:27;11.20;59.40
9544;DHT22;30418;51.45933468;7.33152330;2023-04-25T03:16:57;11.20;59.50
9544;DHT22;30418;51.45933468;7.33152330;2023-04-25T03:19:26;11.20;59.40
9544;DHT22;30418;51.45933468;7.33152330;2023-04-25T03:21:54;11.20;59.40
9544;DHT22;30418;51.45933468;7.33152330;2023-04-25T03:24:23;11.20;59.50
9544;DHT22;30418;51.45933468;7.33152330;2023-04-25T03:26:52;11.20;59.50
9544;DHT22;30418;51.45933468;7.33152330;2023-04-25T03:29:20;11.10;59.50
9544;DHT22;30418;51.45933468;7.33152330;2023-04-25T03:31:56;11.10;59.40
9544;DHT22;30418;51.45933468;7.33152330;2023-04-25T03:34:25;11.10;59.40
9544;DHT22;30418;51.45933468;7.33152330;2023-04-25T03:36:54;11.10;59.50
9544;DHT22;30418;51.45933468;7.33152330;2023-04-25T03:39:24;11.10;59.60
9544;DHT22;30418;51.45933468;7.33152330;2023-04-25T03:41:52;11.10;59.70
9544;DHT22;30418;51.45933468;7.33152330;2023-04-25T03:44:21;11.10;59.70
9544;DHT22;30418;51.45933468;7.33152330;2023-04-25T03:46:51;11.10;59.60
9544;DHT22;30418;51.45933468;7.33152330;2023-04-25T03:49:21;11.10;59.70
9544;DHT22;30418;51.45933468;7.33152330;2023-04-25T03:51:56;11.00;59.60
9544;DHT22;30418;51.45933468;7.33152330;2023-04-25T03:54:25;11.00;59.60
9544;DHT22;30418;51.45933468;7.33152330;2023-04-25T03:57:03;11.00;59.70
9544;DHT22;30418;51.45933468;7.33152330;2023-04-25T03:59:34;11.00;59.80
9544;DHT22;30418;51.45933468;7.33152330;2023-04-25T04:02:03;11.00;59.80
9544;DHT22;30418;51.45933468;7.33152330;2023-04-25T04:04:36;11.00;59.80
9544;DHT22;30418;51.45933468;7.33152330;2023-04-25T04:07:05;11.00;60.00
9544;DHT22;30418;51.45933468;7.33152330;2023-04-25T04:09:36;11.10;60.00
9544;DHT22;30418;51.45933468;7.33152330;2023-04-25T04:12:09;11.10;60.00
9544;DHT22;30418;51.45933468;7.33152330;2023-04-25T04:14:40;11.10;59.90
9544;DHT22;30418;51.45933468;7.33152330;2023-04-25T04:17:09;11.10;59.90
9544;DHT22;30418;51.45933468;7.33152330;2023-04-25T04:19:39;11.10;59.90
9544;DHT22;30418;51.45933468;7.33152330;2023-04-25T04:22:15;11.10;59.40
9544;DHT22;30418;51.45933468;7.33152330;2023-04-25T04:24:43;11.00;59.00
9544;DHT22;30418;51.45933468;7.33152330;2023-04-25T04:27:17;11.00;58.80
9544;DHT22;30418;51.45933468;7.33152330;2023-04-25T04:29:52;10.90;58.80
9544;DHT22;30418;51.45933468;7.33152330;2023-04-25T04:32:29;10.80;58.70
9544;DHT22;30418;51.45933468;7.33152330;2023-04-25T04:35:01;10.80;58.70
9544;DHT22;30418;51.45933468;7.33152330;2023-04-25T04:37:31;10.70;58.50
9544;DHT22;30418;51.45933468;7.33152330;2023-04-25T04:40:00;10.60;58.40
9544;DHT22;30418;51.45933468;7.33152330;2023-04-25T04:42:45;10.60;58.50
9544;DHT22;30418;51.45933468;7.33152330;2023-04-25T04:45:22;10.50;58.60
9544;DHT22;30418;51.45933468;7.33152330;2023-04-25T04:48:09;10.50;58.60
9544;DHT22;30418;51.45933468;7.33152330;2023-04-25T04:51:09;10.50;58.80
9544;DHT22;30418;51.45933468;7.33152330;2023-04-25T04:53:51;10.50;59.00
9544;DHT22;30418;51.45933468;7.33152330;2023-04-25T04:56:40;10.50;59.10
9544;DHT22;30418;51.45933468;7.33152330;2023-04-25T04:59:28;10.50;59.10
9544;DHT22;30418;51.45933468;7.33152330;2023-04-25T05:02:05;10.50;59.00
9544;DHT22;30418;51.45933468;7.33152330;2023-04-25T05:04:50;10.50;59.10
9544;DHT22;30418;51.45933468;7.33152330;2023-04-25T05:07:21;10.50;59.00
9544;DHT22;30418;51.45933468;7.33152330;2023-04-25T05:10:00;10.50;59.00
9544;DHT22;30418;51.45933468;7.33152330;2023-04-25T05:12:47;10.50;59.00
9544;DHT22;30418;51.45933468;7.33152330;2023-04-25T05:15:36;10.60;59.20
9544;DHT22;30418;51.45933468;7.33152330;2023-04-25T05:18:28;10.60;59.20
9544;DHT22;30418;51.45933468;7.33152330;2023-04-25T05:20:56;10.60;59.10
9544;DHT22;30418;51.45933468;7.33152330;2023-04-25T05:23:37;10.60;59.00
9544;DHT22;30418;51.45933468;7.33152330;2023-04-25T05:26:22;10.60;59.00
9544;DHT22;30418;51.45933468;7.33152330;2023-04-25T05:29:02;10.60;59.00
9544;DHT22;30418;51.45933468;7.33152330;2023-04-25T05:31:49;10.60;59.00
9544;DHT22;30418;51.45933468;7.33152330;2023-04-25T05:34:18;10.60;59.00
9544;DHT22;30418;51.45933468;7.33152330;2023-04-25T05:36:53;10.60;58.90
9544;DHT22;30418;51.45933468;7.33152330;2023-04-25T05:39:24;10.60;59.00
9544;DHT22;30418;51.45933468;7.33152330;2023-04-25T05:42:19;10.60;59.00
9544;DHT22;30418;51.45933468;7.33152330;2023-04-25T05:45:08;10.60;59.00
9544;DHT22;30418;51.45933468;7.33152330;2023-04-25T05:47:49;10.60;59.10
9544;DHT22;30418;51.45933468;7.33152330;2023-04-25T05:50:23;10.60;59.20
9544;DHT22;30418;51.45933468;7.33152330;2023-04-25T05:52:55;10.60;59.30
9544;DHT22;30418;51.45933468;7.33152330;2023-04-25T05:55:31;10.60;59.40
9544;DHT22;30418;51.45933468;7.33152330;2023-04-25T05:58:05;10.60;59.50
9544;DHT22;30418;51.45933468;7.33152330;2023-04-25T06:00:35;10.70;59.60
9544;DHT22;30418;51.45933468;7.33152330;2023-04-25T06:03:03;10.70;59.60
9544;DHT22;30418;51.45933468;7.33152330;2023-04-25T06:05:34;10.70;59.60
9544;DHT22;30418;51.45933468;7.33152330;2023-04-25T06:08:03;10.70;59.70
9544;DHT22;30418;51.45933468;7.33152330;2023-04-25T06:10:33;10.70;59.70
9544;DHT22;30418;51.45933468;7.33152330;2023-04-25T06:13:03;10.80;59.80
9544;DHT22;30418;51.45933468;7.33152330;2023-04-25T06:15:34;10.70;59.70
9544;DHT22;30418;51.45933468;7.33152330;2023-04-25T06:18:03;10.80;59.80
9544;DHT22;30418;51.45933468;7.33152330;2023-04-25T06:20:33;10.80;59.80
9544;DHT22;30418;51.45933468;7.33152330;2023-04-25T06:23:02;10.90;59.80
9544;DHT22;30418;51.45933468;7.33152330;2023-04-25T06:25:54;10.90;59.80
9544;DHT22;30418;51.45933468;7.33152330;2023-04-25T06:28:24;10.90;59.90
9544;DHT22;30418;51.45933468;7.33152330;2023-04-25T06:30:53;10.90;59.80
9544;DHT22;30418;51.45933468;7.33152330;2023-04-25T06:33:22;10.90;59.70
9544;DHT22;30418;51.45933468;7.33152330;2023-04-25T06:35:52;10.90;59.80
9544;DHT22;30418;51.45933468;7.33152330;2023-04-25T06:38:24;10.90;59.80
9544;DHT22;30418;51.45933468;7.33152330;2023-04-25T06:40:57;10.90;59.70
9544;DHT22;30418;51.45933468;7.33152330;2023-04-25T06:43:29;10.90;59.70
9544;DHT22;30418;51.45933468;7.33152330;2023-04-25T06:46:08;10.90;60.50
9544;DHT22;30418;51.45933468;7.33152330;2023-04-25T06:48:43;10.90;59.80
9544;DHT22;30418;51.45933468;7.33152330;2023-04-25T06:51:12;10.90;59.80
9544;DHT22;30418;51.45933468;7.33152330;2023-04-25T06:53:42;10.90;59.70
9544;DHT22;30418;51.45933468;7.33152330;2023-04-25T06:56:20;10.90;59.70
9544;DHT22;30418;51.45933468;7.33152330;2023-04-25T06:59:01;10.90;59.70
9544;DHT22;30418;51.45933468;7.33152330;2023-04-25T07:01:32;10.90;59.70
9544;DHT22;30418;51.45933468;7.33152330;2023-04-25T07:04:04;10.90;59.60
9544;DHT22;30418;51.45933468;7.33152330;2023-04-25T07:06:37;10.90;59.50
9544;DHT22;30418;51.45933468;7.33152330;2023-04-25T07:09:10;10.90;59.50
9544;DHT22;30418;51.45933468;7.33152330;2023-04-25T07:11:44;10.90;59.40
9544;DHT22;30418;51.45933468;7.33152330;2023-04-25T07:14:13;10.90;59.60
9544;DHT22;30418;51.45933468;7.33152330;2023-04-25T07:16:41;10.90;59.60
9544;DHT22;30418;51.45933468;7.33152330;2023-04-25T07:19:10;10.90;59.60
9544;DHT22;30418;51.45933468;7.33152330;2023-04-25T07:21:39;11.00;59.70
9544;DHT22;30418;51.45933468;7.33152330;2023-04-25T07:24:08;11.00;59.70
9544;DHT22;30418;51.45933468;7.33152330;2023-04-25T07:26:40;11.10;59.60
9544;DHT22;30418;51.45933468;7.33152330;2023-04-25T07:29:18;11.10;59.40
9544;DHT22;30418;51.45933468;7.33152330;2023-04-25T07:31:47;11.10;59.20
9544;DHT22;30418;51.45933468;7.33152330;2023-04-25T07:34:16;11.20;59.20
9544;DHT22;30418;51.45933468;7.33152330;2023-04-25T07:36:44;11.20;58.90
9544;DHT22;30418;51.45933468;7.33152330;2023-04-25T07:39:13;11.20;58.70
9544;DHT22;30418;51.45933468;7.33152330;2023-04-25T07:41:42;11.20;58.40
9544;DHT22;30418;51.45933468;7.33152330;2023-04-25T07:44:16;11.20;58.40
9544;DHT22;30418;51.45933468;7.33152330;2023-04-25T07:46:47;11.20;58.50
9544;DHT22;30418;51.45933468;7.33152330;2023-04-25T07:49:16;11.20;58.60
9544;DHT22;30418;51.45933468;7.33152330;2023-04-25T07:51:44;11.20;58.50
9544;DHT22;30418;51.45933468;7.33152330;2023-04-25T07:54:17;11.20;58.50
9544;DHT22;30418;51.45933468;7.33152330;2023-04-25T07:56:53;11.20;58.50
9544;DHT22;30418;51.45933468;7.33152330;2023-04-25T07:59:28;11.20;58.40
9544;DHT22;30418;51.45933468;7.33152330;2023-04-25T08:02:00;11.30;58.40
9544;DHT22;30418;51.45933468;7.33152330;2023-04-25T08:04:29;11.20;58.30
9544;DHT22;30418;51.45933468;7.33152330;2023-04-25T08:07:02;11.20;58.20
9544;DHT22;30418;51.45933468;7.33152330;2023-04-25T08:09:39;11.30;58.20
9544;DHT22;30418;51.45933468;7.33152330;2023-04-25T08:12:14;11.30;58.00
9544;DHT22;30418;51.45933468;7.33152330;2023-04-25T08:14:45;11.30;57.80
9544;DHT22;30418;51.45933468;7.33152330;2023-04-25T08:17:14;11.30;57.90
9544;DHT22;30418;51.45933468;7.33152330;2023-04-25T08:19:42;11.30;58.00
9544;DHT22;30418;51.45933468;7.33152330;2023-04-25T08:22:21;11.40;58.00
9544;DHT22;30418;51.45933468;7.33152330;2023-04-25T08:24:57;11.40;57.80
9544;DHT22;30418;51.45933468;7.33152330;2023-04-25T08:27:25;11.40;57.40
9544;DHT22;30418;51.45933468;7.33152330;2023-04-25T08:29:55;11.40;57.10
9544;DHT22;30418;51.45933468;7.33152330;2023-04-25T08:32:24;11.50;56.90
9544;DHT22;30418;51.45933468;7.33152330;2023-04-25T08:35:10;11.50;56.60
9544;DHT22;30418;51.45933468;7.33152330;2023-04-25T08:37:39;11.50;56.30
9544;DHT22;30418;51.45933468;7.33152330;2023-04-25T08:40:14;11.50;56.10
9544;DHT22;30418;51.45933468;7.33152330;2023-04-25T08:42:43;11.50;56.20
9544;DHT22;30418;51.45933468;7.33152330;2023-04-25T08:45:15;11.60;56.50
9544;DHT22;30418;51.45933468;7.33152330;2023-04-25T08:47:45;11.60;56.40
9544;DHT22;30418;51.45933468;7.33152330;2023-04-25T08:50:17;11.70;56.20
9544;DHT22;30418;51.45933468;7.33152330;2023-04-25T08:52:47;11.70;56.00
9544;DHT22;30418;51.45933468;7.33152330;2023-04-25T08:55:20;11.70;55.80
9544;DHT22;30418;51.45933468;7.33152330;2023-04-25T08:57:55;11.80;55.80
9544;DHT22;30418;51.45933468;7.33152330;2023-04-25T09:00:26;11.80;55.70
9544;DHT22;30418;51.45933468;7.33152330;2023-04-25T09:02:56;11.80;55.50
9544;DHT22;30418;51.45933468;7.33152330;2023-04-25T09:05:30;11.80;55.40
9544;DHT22;30418;51.45933468;7.33152330;2023-04-25T09:08:00;11.80;55.10
9544;DHT22;30418;51.45933468;7.33152330;2023-04-25T09:10:28;11.80;55.10
9544;DHT22;30418;51.45933468;7.33152330;2023-04-25T09:13:05;11.90;55.30
9544;DHT22;30418;51.45933468;7.33152330;2023-04-25T09:15:57;11.90;55.50
9544;DHT22;30418;51.45933468;7.33152330;2023-04-25T09:19:00;11.90;55.40
9544;DHT22;30418;51.45933468;7.33152330;2023-04-25T09:21:32;12.00;55.50
9544;DHT22;30418;51.45933468;7.33152330;2023-04-25T09:24:02;12.00;55.40
9544;DHT22;30418;51.45933468;7.33152330;2023-04-25T09:26:32;12.10;55.30
9544;DHT22;30418;51.45933468;7.33152330;2023-04-25T09:29:05;12.10;55.10
9544;DHT22;30418;51.45933468;7.33152330;2023-04-25T09:31:40;12.20;55.00
9544;DHT22;30418;51.45933468;7.33152330;2023-04-25T09:34:10;12.30;54.80
9544;DHT22;30418;51.45933468;7.33152330;2023-04-25T09:36:46;12.30;54.80
9544;DHT22;30418;51.45933468;7.33152330;2023-04-25T09:39:28;12.30;54.60
9544;DHT22;30418;51.45933468;7.33152330;2023-04-25T09:42:09;12.40;54.40
9544;DHT22;30418;51.45933468;7.33152330;2023-04-25T09:44:42;12.40;54.40
9544;DHT22;30418;51.45933468;7.33152330;2023-04-25T09:47:15;12.40;53.80
9544;DHT22;30418;51.45933468;7.33152330;2023-04-25T09:49:45;12.40;53.90
9544;DHT22;30418;51.45933468;7.33152330;2023-04-25T09:52:16;12.40;53.80
9544;DHT22;30418;51.45933468;7.33152330;2023-04-25T09:55:15;12.30;53.50
9544;DHT22;30418;51.45933468;7.33152330;2023-04-25T09:57:50;12.30;53.70
9544;DHT22;30418;51.45933468;7.33152330;2023-04-25T10:00:21;12.30;53.60
9544;DHT22;30418;51.45933468;7.33152330;2023-04-25T10:02:52;12.20;53.60
9544;DHT22;30418;51.45933468;7.33152330;2023-04-25T10:05:48;12.30;53.40
9544;DHT22;30418;51.45933468;7.33152330;2023-04-25T10:08:20;12.30;53.40
9544;DHT22;30418;51.45933468;7.33152330;2023-04-25T10:10:49;12.30;53.30
9544;DHT22;30418;51.45933468;7.33152330;2023-04-25T10:13:18;12.30;53.90
9544;DHT22;30418;51.45933468;7.33152330;2023-04-25T10:15:48;12.30;53.10
9544;DHT22;30418;51.45933468;7.33152330;2023-04-25T10:18:19;12.30;52.70
9544;DHT22;30418;51.45933468;7.33152330;2023-04-25T10:20:48;12.30;52.60
9544;DHT22;30418;51.45933468;7.33152330;2023-04-25T10:23:20;12.40;52.70
9544;DHT22;30418;51.45933468;7.33152330;2023-04-25T10:25:49;12.50;52.80
9544;DHT22;30418;51.45933468;7.33152330;2023-04-25T10:28:19;12.50;52.70
9544;DHT22;30418;51.45933468;7.33152330;2023-04-25T10:30:57;12.60;52.80
9544;DHT22;30418;51.45933468;7.33152330;2023-04-25T10:33:37;12.70;52.00
9544;DHT22;30418;51.45933468;7.33152330;2023-04-25T10:36:12;12.80;51.70
9544;DHT22;30418;51.45933468;7.33152330;2023-04-25T10:38:43;12.80;51.70
9544;DHT22;30418;51.45933468;7.33152330;2023-04-25T10:41:13;12.90;52.00
9544;DHT22;30418;51.45933468;7.33152330;2023-04-25T10:43:43;12.90;51.80
9544;DHT22;30418;51.45933468;7.33152330;2023-04-25T10:46:16;12.90;51.80
9544;DHT22;30418;51.45933468;7.33152330;2023-04-25T10:48:49;12.90;51.40
9544;DHT22;30418;51.45933468;7.33152330;2023-04-25T10:51:22;12.80;51.10
9544;DHT22;30418;51.45933468;7.33152330;2023-04-25T10:54:02;12.80;51.00
9544;DHT22;30418;51.45933468;7.33152330;2023-04-25T10:56:33;12.80;50.80
9544;DHT22;30418;51.45933468;7.33152330;2023-04-25T10:59:07;12.80;51.00
9544;DHT22;30418;51.45933468;7.33152330;2023-04-25T11:01:39;12.80;50.90
9544;DHT22;30418;51.45933468;7.33152330;2023-04-25T11:04:24;12.70;51.00
9544;DHT22;30418;51.45933468;7.33152330;2023-04-25T11:07:05;12.70;50.80
9544;DHT22;30418;51.45933468;7.33152330;2023-04-25T11:09:39;12.70;50.40
9544;DHT22;30418;51.45933468;7.33152330;2023-04-25T11:12:09;12.70;50.70
9544;DHT22;30418;51.45933468;7.33152330;2023-04-25T11:14:39;12.70;50.40
9544;DHT22;30418;51.45933468;7.33152330;2023-04-25T11:17:08;12.70;50.20
9544;DHT22;30418;51.45933468;7.33152330;2023-04-25T11:19:39;12.60;50.30
9544;DHT22;30418;51.45933468;7.33152330;2023-04-25T11:22:07;12.50;50.40
9544;DHT22;30418;51.45933468;7.33152330;2023-04-25T11:25:29;12.50;51.00
9544;DHT22;30418;51.45933468;7.33152330;2023-04-25T11:27:59;12.30;51.30
9544;DHT22;30418;51.45933468;7.33152330;2023-04-25T11:30:28;12.30;51.60
9544;DHT22;30418;51.45933468;7.33152330;2023-04-25T11:32:57;12.20;51.60
9544;DHT22;30418;51.45933468;7.33152330;2023-04-25T11:35:26;12.20;51.40
9544;DHT22;30418;51.45933468;7.33152330;2023-04-25T11:37:55;12.10;51.40
9544;DHT22;30418;51.45933468;7.33152330;2023-04-25T11:40:24;12.10;51.60
9544;DHT22;30418;51.45933468;7.33152330;2023-04-25T11:42:54;12.10;51.80
9544;DHT22;30418;51.45933468;7.33152330;2023-04-25T11:45:23;12.00;51.80
9544;DHT22;30418;51.45933468;7.33152330;2023-04-25T11:47:52;12.10;52.00
9544;DHT22;30418;51.45933468;7.33152330;2023-04-25T11:50:20;12.00;52.00
9544;DHT22;30418;51.45933468;7.33152330;2023-04-25T11:52:49;12.00;52.00
9544;DHT22;30418;51.45933468;7.33152330;2023-04-25T11:55:20;12.10;52.20
9544;DHT22;30418;51.45933468;7.33152330;2023-04-25T11:57:49;12.10;52.00
9544;DHT22;30418;51.45933468;7.33152330;2023-04-25T12:00:22;12.20;51.90
9544;DHT22;30418;51.45933468;7.33152330;2023-04-25T12:02:53;12.20;51.70
9544;DHT22;30418;51.45933468;7.33152330;2023-04-25T12:05:25;12.20;51.70
9544;DHT22;30418;51.45933468;7.33152330;2023-04-25T12:08:10;12.30;51.60
9544;DHT22;30418;51.45933468;7.33152330;2023-04-25T12:10:41;12.40;51.00
9544;DHT22;30418;51.45933468;7.33152330;2023-04-25T12:13:21;12.40;51.30
9544;DHT22;30418;51.45933468;7.33152330;2023-04-25T12:15:54;12.40;49.90
9544;DHT22;30418;51.45933468;7.33152330;2023-04-25T12:18:24;12.50;50.20
9544;DHT22;30418;51.45933468;7.33152330;2023-04-25T12:20:54;12.60;50.10
9544;DHT22;30418;51.45933468;7.33152330;2023-04-25T12:23:26;12.60;50.20
9544;DHT22;30418;51.45933468;7.33152330;2023-04-25T12:25:55;12.70;50.00
9544;DHT22;30418;51.45933468;7.33152330;2023-04-25T12:28:25;12.80;50.00
9544;DHT22;30418;51.45933468;7.33152330;2023-04-25T12:30:58;12.80;50.00
9544;DHT22;30418;51.45933468;7.33152330;2023-04-25T12:33:29;13.00;50.20
9544;DHT22;30418;51.45933468;7.33152330;2023-04-25T12:35:58;13.00;50.00
9544;DHT22;30418;51.45933468;7.33152330;2023-04-25T12:38:36;13.10;49.50
9544;DHT22;30418;51.45933468;7.33152330;2023-04-25T12:41:04;13.20;49.60
9544;DHT22;30418;51.45933468;7.33152330;2023-04-25T12:43:33;13.20;49.20
9544;DHT22;30418;51.45933468;7.33152330;2023-04-25T12:46:04;13.30;49.00
9544;DHT22;30418;51.45933468;7.33152330;2023-04-25T12:48:32;13.40;48.80
9544;DHT22;30418;51.45933468;7.33152330;2023-04-25T12:51:01;13.40;49.10
9544;DHT22;30418;51.45933468;7.33152330;2023-04-25T12:53:30;13.50;49.30
9544;DHT22;30418;51.45933468;7.33152330;2023-04-25T12:56:01;13.50;48.60
9544;DHT22;30418;51.45933468;7.33152330;2023-04-25T12:58:30;13.50;48.40
9544;DHT22;30418;51.45933468;7.33152330;2023-04-25T13:01:00;13.50;48.70
9544;DHT22;30418;51.45933468;7.33152330;2023-04-25T13:03:30;13.60;48.80
9544;DHT22;30418;51.45933468;7.33152330;2023-04-25T13:05:58;13.50;48.50
9544;DHT22;30418;51.45933468;7.33152330;2023-04-25T13:08:27;13.60;48.50
9544;DHT22;30418;51.45933468;7.33152330;2023-04-25T13:10:55;13.50;48.40
9544;DHT22;30418;51.45933468;7.33152330;2023-04-25T13:13:24;13.50;48.40
9544;DHT22;30418;51.45933468;7.33152330;2023-04-25T13:15:54;13.40;47.70
9544;DHT22;30418;51.45933468;7.33152330;2023-04-25T13:18:22;13.40;47.70
9544;DHT22;30418;51.45933468;7.33152330;2023-04-25T13:20:55;13.30;48.10
9544;DHT22;30418;51.45933468;7.33152330;2023-04-25T13:23:25;13.20;47.60
9544;DHT22;30418;51.45933468;7.33152330;2023-04-25T13:25:55;13.20;48.00
9544;DHT22;30418;51.45933468;7.33152330;2023-04-25T13:28:24;13.10;47.90
9544;DHT22;30418;51.45933468;7.33152330;2023-04-25T13:30:53;13.10;47.50
9544;DHT22;30418;51.45933468;7.33152330;2023-04-25T13:33:22;13.00;47.20
9544;DHT22;30418;51.45933468;7.33152330;2023-04-25T13:35:50;13.00;47.40
9544;DHT22;30418;51.45933468;7.33152330;2023-04-25T13:38:23;12.90;47.50
9544;DHT22;30418;51.45933468;7.33152330;2023-04-25T13:40:52;12.90;47.70
9544;DHT22;30418;51.45933468;7.33152330;2023-04-25T13:43:22;12.90;48.00
9544;DHT22;30418;51.45933468;7.33152330;2023-04-25T13:45:50;12.90;48.10
9544;DHT22;30418;51.45933468;7.33152330;2023-04-25T13:48:19;12.80;48.10
9544;DHT22;30418;51.45933468;7.33152330;2023-04-25T13:50:49;12.80;48.20
9544;DHT22;30418;51.45933468;7.33152330;2023-04-25T13:53:18;12.80;48.30
9544;DHT22;30418;51.45933468;7.33152330;2023-04-25T13:55:47;12.80;48.30
9544;DHT22;30418;51.45933468;7.33152330;2023-04-25T13:58:17;12.80;48.30
9544;DHT22;30418;51.45933468;7.33152330;2023-04-25T14:00:47;12.80;48.50
9544;DHT22;30418;51.45933468;7.33152330;2023-04-25T14:03:15;12.80;48.50